Azalia, Michigan
Current Conditions -  °F | °C
As of 9:34 AM on Saturday 25 Oct 2014 (Local Time) from KTTF Reporting Station
Haze Haze  
Wind Chill: 13°   Ceiling: Unl
Heat Index: 13°   Visibility: 5mi
Dew Point: 11°   Wind: 12mph
Humidity: 88%   Direction: 250°WSW
Pressure: 29.84"   Gusts: NA
Location:  42.02°N, 83.67°W
Report Text: KTTF 251334Z AUTO 25010KT 5SM BR CLR 13/11 A2984 RMK AO2
Loading
Personal Weather Stations






























Interactive Weather Map
Tropical Storm Tracking
New forecast layout! Learn more

10-Day Weather Forecast

Advertisements
Track Severe Weather on mobile